sensor_id;sensor_type;location;lat;lon;timestamp;temperature;humidity
68274;SHT30;55104;47.356;19.448;2022-08-27T00:01:30;23.20;52.74
68274;SHT30;55104;47.356;19.448;2022-08-27T00:04:33;23.24;53.06
68274;SHT30;55104;47.356;19.448;2022-08-27T00:07:35;23.26;53.12
68274;SHT30;55104;47.356;19.448;2022-08-27T00:10:38;23.32;53.29
68274;SHT30;55104;47.356;19.448;2022-08-27T00:13:40;23.27;53.58
68274;SHT30;55104;47.356;19.448;2022-08-27T00:16:42;23.27;53.75
68274;SHT30;55104;47.356;19.448;2022-08-27T00:19:45;23.20;53.98
68274;SHT30;55104;47.356;19.448;2022-08-27T00:22:47;23.08;54.46
68274;SHT30;55104;47.356;19.448;2022-08-27T00:25:49;22.98;54.81
68274;SHT30;55104;47.356;19.448;2022-08-27T00:28:51;22.94;55.10
68274;SHT30;55104;47.356;19.448;2022-08-27T00:31:53;22.87;55.06
68274;SHT30;55104;47.356;19.448;2022-08-27T00:34:55;22.79;54.98
68274;SHT30;55104;47.356;19.448;2022-08-27T00:37:57;22.75;55.13
68274;SHT30;55104;47.356;19.448;2022-08-27T00:40:59;22.64;55.67
68274;SHT30;55104;47.356;19.448;2022-08-27T00:44:02;22.63;55.00
68274;SHT30;55104;47.356;19.448;2022-08-27T00:47:12;22.56;56.65
68274;SHT30;55104;47.356;19.448;2022-08-27T00:50:41;22.36;57.36
68274;SHT30;55104;47.356;19.448;2022-08-27T00:53:44;22.26;57.71
68274;SHT30;55104;47.356;19.448;2022-08-27T00:56:48;22.12;58.88
68274;SHT30;55104;47.356;19.448;2022-08-27T00:59:53;22.01;58.96
68274;SHT30;55104;47.356;19.448;2022-08-27T01:02:56;21.88;59.09
68274;SHT30;55104;47.356;19.448;2022-08-27T01:05:59;21.79;59.58
68274;SHT30;55104;47.356;19.448;2022-08-27T01:09:13;21.68;59.78
68274;SHT30;55104;47.356;19.448;2022-08-27T01:12:17;21.64;60.16
68274;SHT30;55104;47.356;19.448;2022-08-27T01:15:22;21.54;60.77
68274;SHT30;55104;47.356;19.448;2022-08-27T01:18:27;21.44;61.24
68274;SHT30;55104;47.356;19.448;2022-08-27T01:21:37;21.36;61.65
68274;SHT30;55104;47.356;19.448;2022-08-27T01:24:45;21.26;62.05
68274;SHT30;55104;47.356;19.448;2022-08-27T01:27:49;21.19;61.49
68274;SHT30;55104;47.356;19.448;2022-08-27T01:30:52;21.13;62.02
68274;SHT30;55104;47.356;19.448;2022-08-27T01:33:56;21.12;61.19
68274;SHT30;55104;47.356;19.448;2022-08-27T01:36:58;21.18;60.85
68274;SHT30;55104;47.356;19.448;2022-08-27T01:40:00;21.29;60.26
68274;SHT30;55104;47.356;19.448;2022-08-27T01:43:04;21.46;58.45
68274;SHT30;55104;47.356;19.448;2022-08-27T01:46:06;21.57;57.71
68274;SHT30;55104;47.356;19.448;2022-08-27T01:49:09;21.61;57.02
68274;SHT30;55104;47.356;19.448;2022-08-27T01:52:12;21.62;57.64
68274;SHT30;55104;47.356;19.448;2022-08-27T01:55:18;21.71;56.32
68274;SHT30;55104;47.356;19.448;2022-08-27T01:58:23;21.88;55.45
68274;SHT30;55104;47.356;19.448;2022-08-27T02:01:26;21.91;55.72
68274;SHT30;55104;47.356;19.448;2022-08-27T02:04:29;21.84;55.95
68274;SHT30;55104;47.356;19.448;2022-08-27T02:07:31;21.88;55.28
68274;SHT30;55104;47.356;19.448;2022-08-27T02:10:36;21.89;55.17
68274;SHT30;55104;47.356;19.448;2022-08-27T02:13:38;21.99;54.74
68274;SHT30;55104;47.356;19.448;2022-08-27T02:16:41;22.02;54.36
68274;SHT30;55104;47.356;19.448;2022-08-27T02:19:53;21.99;54.38
68274;SHT30;55104;47.356;19.448;2022-08-27T02:22:56;21.88;55.01
68274;SHT30;55104;47.356;19.448;2022-08-27T02:25:58;21.95;54.06
68274;SHT30;55104;47.356;19.448;2022-08-27T02:29:00;21.95;54.15
68274;SHT30;55104;47.356;19.448;2022-08-27T02:32:02;22.05;53.78
68274;SHT30;55104;47.356;19.448;2022-08-27T02:35:05;22.06;53.57
68274;SHT30;55104;47.356;19.448;2022-08-27T02:38:08;22.01;53.78
68274;SHT30;55104;47.356;19.448;2022-08-27T02:41:11;22.08;53.42
68274;SHT30;55104;47.356;19.448;2022-08-27T02:44:13;22.20;53.00
68274;SHT30;55104;47.356;19.448;2022-08-27T02:47:16;22.26;53.09
68274;SHT30;55104;47.356;19.448;2022-08-27T02:50:18;22.24;52.95
68274;SHT30;55104;47.356;19.448;2022-08-27T02:53:21;22.30;52.94
68274;SHT30;55104;47.356;19.448;2022-08-27T02:56:24;22.30;52.74
68274;SHT30;55104;47.356;19.448;2022-08-27T02:59:26;22.26;52.84
68274;SHT30;55104;47.356;19.448;2022-08-27T03:02:28;22.19;53.10
68274;SHT30;55104;47.356;19.448;2022-08-27T03:05:31;22.10;53.18
68274;SHT30;55104;47.356;19.448;2022-08-27T03:08:33;22.12;53.05
68274;SHT30;55104;47.356;19.448;2022-08-27T03:11:53;22.09;53.34
68274;SHT30;55104;47.356;19.448;2022-08-27T03:14:55;22.10;53.27
68274;SHT30;55104;47.356;19.448;2022-08-27T03:17:57;22.02;53.45
68274;SHT30;55104;47.356;19.448;2022-08-27T03:21:21;22.01;53.54
68274;SHT30;55104;47.356;19.448;2022-08-27T03:24:24;21.99;53.86
68274;SHT30;55104;47.356;19.448;2022-08-27T03:27:27;21.92;54.35
68274;SHT30;55104;47.356;19.448;2022-08-27T03:30:29;21.82;54.68
68274;SHT30;55104;47.356;19.448;2022-08-27T03:33:34;21.73;55.85
68274;SHT30;55104;47.356;19.448;2022-08-27T03:36:36;21.61;56.27
68274;SHT30;55104;47.356;19.448;2022-08-27T03:39:38;21.58;56.36
68274;SHT30;55104;47.356;19.448;2022-08-27T03:42:41;21.46;56.70
68274;SHT30;55104;47.356;19.448;2022-08-27T03:45:43;21.30;58.00
68274;SHT30;55104;47.356;19.448;2022-08-27T03:49:03;21.30;56.98
68274;SHT30;55104;47.356;19.448;2022-08-27T03:52:06;21.27;57.75
68274;SHT30;55104;47.356;19.448;2022-08-27T03:55:08;21.26;57.85
68274;SHT30;55104;47.356;19.448;2022-08-27T03:58:12;21.23;57.63
68274;SHT30;55104;47.356;19.448;2022-08-27T04:01:14;21.19;57.78
68274;SHT30;55104;47.356;19.448;2022-08-27T04:04:18;21.16;58.28
68274;SHT30;55104;47.356;19.448;2022-08-27T04:07:20;21.13;58.27
68274;SHT30;55104;47.356;19.448;2022-08-27T04:10:22;21.22;57.71
68274;SHT30;55104;47.356;19.448;2022-08-27T04:13:24;21.27;57.01
68274;SHT30;55104;47.356;19.448;2022-08-27T04:16:26;21.39;55.79
68274;SHT30;55104;47.356;19.448;2022-08-27T04:19:29;21.64;54.64
68274;SHT30;55104;47.356;19.448;2022-08-27T04:22:33;21.85;54.07
68274;SHT30;55104;47.356;19.448;2022-08-27T04:25:40;21.86;53.96
68274;SHT30;55104;47.356;19.448;2022-08-27T04:28:42;21.95;54.00
68274;SHT30;55104;47.356;19.448;2022-08-27T04:31:49;22.06;53.28
68274;SHT30;55104;47.356;19.448;2022-08-27T04:34:53;22.32;52.34
68274;SHT30;55104;47.356;19.448;2022-08-27T04:37:55;22.32;52.40
68274;SHT30;55104;47.356;19.448;2022-08-27T04:41:01;22.35;52.47
68274;SHT30;55104;47.356;19.448;2022-08-27T04:44:23;22.39;53.70
68274;SHT30;55104;47.356;19.448;2022-08-27T04:47:26;22.35;53.21
68274;SHT30;55104;47.356;19.448;2022-08-27T04:50:28;22.40;53.23
68274;SHT30;55104;47.356;19.448;2022-08-27T04:53:30;22.41;52.91
68274;SHT30;55104;47.356;19.448;2022-08-27T04:56:34;22.49;52.90
68274;SHT30;55104;47.356;19.448;2022-08-27T04:59:36;22.53;53.05
68274;SHT30;55104;47.356;19.448;2022-08-27T05:02:39;22.56;53.17
68274;SHT30;55104;47.356;19.448;2022-08-27T05:05:42;22.60;53.67
68274;SHT30;55104;47.356;19.448;2022-08-27T05:08:47;22.63;53.43
68274;SHT30;55104;47.356;19.448;2022-08-27T05:11:49;22.68;53.04
68274;SHT30;55104;47.356;19.448;2022-08-27T05:14:53;22.77;53.28
68274;SHT30;55104;47.356;19.448;2022-08-27T05:17:55;22.83;53.22
68274;SHT30;55104;47.356;19.448;2022-08-27T05:21:02;22.91;52.68
68274;SHT30;55104;47.356;19.448;2022-08-27T05:24:06;22.95;53.27
68274;SHT30;55104;47.356;19.448;2022-08-27T05:27:08;23.04;52.97
68274;SHT30;55104;47.356;19.448;2022-08-27T05:30:13;23.16;51.62
68274;SHT30;55104;47.356;19.448;2022-08-27T05:33:19;23.30;51.63
68274;SHT30;55104;47.356;19.448;2022-08-27T05:36:24;23.43;51.03
68274;SHT30;55104;47.356;19.448;2022-08-27T05:39:26;23.59;51.06
68274;SHT30;55104;47.356;19.448;2022-08-27T05:42:30;23.61;51.28
68274;SHT30;55104;47.356;19.448;2022-08-27T05:45:47;23.70;50.38
68274;SHT30;55104;47.356;19.448;2022-08-27T05:48:50;23.84;49.92
68274;SHT30;55104;47.356;19.448;2022-08-27T05:51:52;23.93;49.77
68274;SHT30;55104;47.356;19.448;2022-08-27T05:54:54;24.02;49.22
68274;SHT30;55104;47.356;19.448;2022-08-27T05:57:57;24.12;49.06
68274;SHT30;55104;47.356;19.448;2022-08-27T06:01:00;24.22;48.33
68274;SHT30;55104;47.356;19.448;2022-08-27T06:04:12;24.36;48.53
68274;SHT30;55104;47.356;19.448;2022-08-27T06:07:18;24.48;47.68
68274;SHT30;55104;47.356;19.448;2022-08-27T06:10:20;24.55;46.90
68274;SHT30;55104;47.356;19.448;2022-08-27T06:13:23;24.60;46.04
68274;SHT30;55104;47.356;19.448;2022-08-27T06:16:25;24.59;46.55
68274;SHT30;55104;47.356;19.448;2022-08-27T06:19:28;24.52;46.65
68274;SHT30;55104;47.356;19.448;2022-08-27T06:22:30;24.57;47.06
68274;SHT30;55104;47.356;19.448;2022-08-27T06:25:32;24.55;46.49
68274;SHT30;55104;47.356;19.448;2022-08-27T06:28:35;24.57;46.72
68274;SHT30;55104;47.356;19.448;2022-08-27T06:31:37;24.64;46.64
68274;SHT30;55104;47.356;19.448;2022-08-27T06:34:41;24.61;47.66
68274;SHT30;55104;47.356;19.448;2022-08-27T06:37:43;24.73;47.38
68274;SHT30;55104;47.356;19.448;2022-08-27T06:40:45;24.84;48.05
68274;SHT30;55104;47.356;19.448;2022-08-27T06:43:48;24.90;47.46
68274;SHT30;55104;47.356;19.448;2022-08-27T06:46:50;25.04;48.51
68274;SHT30;55104;47.356;19.448;2022-08-27T06:49:52;25.22;47.17
68274;SHT30;55104;47.356;19.448;2022-08-27T06:52:54;25.36;47.32
68274;SHT30;55104;47.356;19.448;2022-08-27T06:55:56;25.58;46.29
68274;SHT30;55104;47.356;19.448;2022-08-27T06:59:00;25.65;46.57
68274;SHT30;55104;47.356;19.448;2022-08-27T07:02:03;25.77;47.70
68274;SHT30;55104;47.356;19.448;2022-08-27T07:05:05;25.86;46.39
68274;SHT30;55104;47.356;19.448;2022-08-27T07:08:08;25.83;45.47
68274;SHT30;55104;47.356;19.448;2022-08-27T07:11:12;25.73;45.33
68274;SHT30;55104;47.356;19.448;2022-08-27T07:14:15;25.83;45.63
68274;SHT30;55104;47.356;19.448;2022-08-27T07:17:17;25.97;45.38
68274;SHT30;55104;47.356;19.448;2022-08-27T07:20:20;26.07;45.35
68274;SHT30;55104;47.356;19.448;2022-08-27T07:23:22;26.22;45.80
68274;SHT30;55104;47.356;19.448;2022-08-27T07:26:24;26.31;46.27
68274;SHT30;55104;47.356;19.448;2022-08-27T07:29:26;26.41;45.39
68274;SHT30;55104;47.356;19.448;2022-08-27T07:32:33;26.59;45.80
68274;SHT30;55104;47.356;19.448;2022-08-27T07:35:35;26.84;45.62
68274;SHT30;55104;47.356;19.448;2022-08-27T07:38:38;27.10;45.35
68274;SHT30;55104;47.356;19.448;2022-08-27T07:41:40;27.12;44.13
68274;SHT30;55104;47.356;19.448;2022-08-27T07:45:01;27.10;44.43
68274;SHT30;55104;47.356;19.448;2022-08-27T07:48:03;27.08;44.63
68274;SHT30;55104;47.356;19.448;2022-08-27T07:51:12;27.28;44.64
68274;SHT30;55104;47.356;19.448;2022-08-27T07:54:14;27.31;45.11
68274;SHT30;55104;47.356;19.448;2022-08-27T07:57:16;27.35;45.00
68274;SHT30;55104;47.356;19.448;2022-08-27T08:00:18;27.51;44.70
68274;SHT30;55104;47.356;19.448;2022-08-27T08:03:22;27.69;45.10
68274;SHT30;55104;47.356;19.448;2022-08-27T08:06:24;27.90;44.20
68274;SHT30;55104;47.356;19.448;2022-08-27T08:09:26;28.25;42.68
68274;SHT30;55104;47.356;19.448;2022-08-27T08:12:28;28.52;43.00
68274;SHT30;55104;47.356;19.448;2022-08-27T08:15:30;28.86;43.87
68274;SHT30;55104;47.356;19.448;2022-08-27T08:18:35;29.16;41.24
68274;SHT30;55104;47.356;19.448;2022-08-27T08:21:38;29.02;41.36
68274;SHT30;55104;47.356;19.448;2022-08-27T08:24:40;29.38;40.82
68274;SHT30;55104;47.356;19.448;2022-08-27T08:27:42;29.58;39.56
68274;SHT30;55104;47.356;19.448;2022-08-27T08:30:44;29.65;39.18
68274;SHT30;55104;47.356;19.448;2022-08-27T08:33:48;29.93;37.72
68274;SHT30;55104;47.356;19.448;2022-08-27T08:36:50;30.13;37.27
68274;SHT30;55104;47.356;19.448;2022-08-27T08:39:56;30.16;36.45
68274;SHT30;55104;47.356;19.448;2022-08-27T08:42:59;30.31;37.24
68274;SHT30;55104;47.356;19.448;2022-08-27T08:46:10;30.45;37.45
68274;SHT30;55104;47.356;19.448;2022-08-27T08:53:22;30.61;34.95
68274;SHT30;55104;47.356;19.448;2022-08-27T08:56:40;30.47;38.89
68274;SHT30;55104;47.356;19.448;2022-08-27T08:59:50;30.20;38.34
68274;SHT30;55104;47.356;19.448;2022-08-27T09:02:56;30.12;35.52
68274;SHT30;55104;47.356;19.448;2022-08-27T09:06:02;29.90;35.60
68274;SHT30;55104;47.356;19.448;2022-08-27T09:09:29;30.02;36.48
68274;SHT30;55104;47.356;19.448;2022-08-27T09:12:33;30.33;38.39
68274;SHT30;55104;47.356;19.448;2022-08-27T09:15:36;30.79;37.93
68274;SHT30;55104;47.356;19.448;2022-08-27T09:18:40;31.13;36.75
68274;SHT30;55104;47.356;19.448;2022-08-27T09:25:18;31.30;32.92
68274;SHT30;55104;47.356;19.448;2022-08-27T09:28:27;31.54;32.64
68274;SHT30;55104;47.356;19.448;2022-08-27T09:35:05;31.74;33.02
68274;SHT30;55104;47.356;19.448;2022-08-27T09:38:08;31.99;33.81
68274;SHT30;55104;47.356;19.448;2022-08-27T09:41:19;32.20;32.91
68274;SHT30;55104;47.356;19.448;2022-08-27T09:44:23;32.19;32.04
68274;SHT30;55104;47.356;19.448;2022-08-27T09:47:25;32.52;31.39
68274;SHT30;55104;47.356;19.448;2022-08-27T09:50:45;32.64;30.81
68274;SHT30;55104;47.356;19.448;2022-08-27T09:54:01;33.11;31.49
68274;SHT30;55104;47.356;19.448;2022-08-27T09:57:06;33.36;32.04
68274;SHT30;55104;47.356;19.448;2022-08-27T10:00:16;33.56;30.98
68274;SHT30;55104;47.356;19.448;2022-08-27T10:03:20;33.21;30.25
68274;SHT30;55104;47.356;19.448;2022-08-27T10:06:28;33.18;31.35
68274;SHT30;55104;47.356;19.448;2022-08-27T10:09:34;33.37;31.22
68274;SHT30;55104;47.356;19.448;2022-08-27T10:12:46;33.14;29.45
68274;SHT30;55104;47.356;19.448;2022-08-27T10:16:08;33.18;31.15
68274;SHT30;55104;47.356;19.448;2022-08-27T10:23:04;33.32;31.40
68274;SHT30;55104;47.356;19.448;2022-08-27T10:26:19;33.63;30.48
68274;SHT30;55104;47.356;19.448;2022-08-27T10:29:48;34.07;30.72
68274;SHT30;55104;47.356;19.448;2022-08-27T10:36:41;34.22;29.36
68274;SHT30;55104;47.356;19.448;2022-08-27T10:40:05;34.35;29.89
68274;SHT30;55104;47.356;19.448;2022-08-27T10:50:07;34.31;30.33
68274;SHT30;55104;47.356;19.448;2022-08-27T10:53:40;34.26;28.42
68274;SHT30;55104;47.356;19.448;2022-08-27T10:56:52;34.34;29.34
68274;SHT30;55104;47.356;19.448;2022-08-27T11:00:21;34.02;28.91
68274;SHT30;55104;47.356;19.448;2022-08-27T11:03:29;33.74;29.83
68274;SHT30;55104;47.356;19.448;2022-08-27T11:06:45;34.00;30.72
68274;SHT30;55104;47.356;19.448;2022-08-27T11:10:33;34.24;31.41
68274;SHT30;55104;47.356;19.448;2022-08-27T11:13:40;34.18;29.66
68274;SHT30;55104;47.356;19.448;2022-08-27T11:16:48;34.38;28.56
68274;SHT30;55104;47.356;19.448;2022-08-27T11:20:06;34.38;29.64
68274;SHT30;55104;47.356;19.448;2022-08-27T11:23:16;34.43;29.84
68274;SHT30;55104;47.356;19.448;2022-08-27T11:26:18;34.90;28.11
68274;SHT30;55104;47.356;19.448;2022-08-27T11:29:32;34.73;27.01
68274;SHT30;55104;47.356;19.448;2022-08-27T11:45:38;35.51;28.75
68274;SHT30;55104;47.356;19.448;2022-08-27T11:48:42;35.59;27.30
68274;SHT30;55104;47.356;19.448;2022-08-27T11:51:59;35.53;27.83
68274;SHT30;55104;47.356;19.448;2022-08-27T11:58:28;35.23;27.36
68274;SHT30;55104;47.356;19.448;2022-08-27T12:01:33;35.25;27.54
68274;SHT30;55104;47.356;19.448;2022-08-27T12:04:39;35.55;28.69
68274;SHT30;55104;47.356;19.448;2022-08-27T12:07:42;35.68;27.55
68274;SHT30;55104;47.356;19.448;2022-08-27T12:14:33;35.44;26.20
68274;SHT30;55104;47.356;19.448;2022-08-27T12:27:30;35.45;27.85
68274;SHT30;55104;47.356;19.448;2022-08-27T12:30:40;35.56;27.50
68274;SHT30;55104;47.356;19.448;2022-08-27T12:33:50;35.24;26.17
68274;SHT30;55104;47.356;19.448;2022-08-27T12:36:55;34.78;26.99
68274;SHT30;55104;47.356;19.448;2022-08-27T12:39:59;35.23;27.19
68274;SHT30;55104;47.356;19.448;2022-08-27T12:43:16;35.30;27.21
68274;SHT30;55104;47.356;19.448;2022-08-27T12:46:18;35.39;27.81
68274;SHT30;55104;47.356;19.448;2022-08-27T12:49:24;35.44;26.96
68274;SHT30;55104;47.356;19.448;2022-08-27T13:02:49;34.76;26.96
68274;SHT30;55104;47.356;19.448;2022-08-27T13:05:56;34.74;26.98
68274;SHT30;55104;47.356;19.448;2022-08-27T13:09:03;34.87;26.84
68274;SHT30;55104;47.356;19.448;2022-08-27T13:12:14;34.78;26.12
68274;SHT30;55104;47.356;19.448;2022-08-27T13:15:18;34.91;26.19
68274;SHT30;55104;47.356;19.448;2022-08-27T13:18:22;34.74;27.14
68274;SHT30;55104;47.356;19.448;2022-08-27T13:21:30;34.96;26.86
68274;SHT30;55104;47.356;19.448;2022-08-27T13:24:44;35.06;26.85
68274;SHT30;55104;47.356;19.448;2022-08-27T13:27:55;35.03;27.53
68274;SHT30;55104;47.356;19.448;2022-08-27T13:31:00;34.96;27.67
68274;SHT30;55104;47.356;19.448;2022-08-27T13:34:04;34.93;28.30
68274;SHT30;55104;47.356;19.448;2022-08-27T13:37:22;34.94;27.25
68274;SHT30;55104;47.356;19.448;2022-08-27T13:40:31;34.97;26.80
68274;SHT30;55104;47.356;19.448;2022-08-27T13:43:39;35.17;28.16
68274;SHT30;55104;47.356;19.448;2022-08-27T13:47:04;35.04;26.40
68274;SHT30;55104;47.356;19.448;2022-08-27T13:50:36;35.06;25.90
68274;SHT30;55104;47.356;19.448;2022-08-27T13:53:36;35.19;28.36
68274;SHT30;55104;47.356;19.448;2022-08-27T13:57:05;35.19;28.38
68274;SHT30;55104;47.356;19.448;2022-08-27T14:00:22;34.80;27.22
68274;SHT30;55104;47.356;19.448;2022-08-27T14:03:36;34.94;27.57
68274;SHT30;55104;47.356;19.448;2022-08-27T14:06:46;35.07;27.31
68274;SHT30;55104;47.356;19.448;2022-08-27T14:09:52;34.91;27.90
68274;SHT30;55104;47.356;19.448;2022-08-27T14:13:04;35.01;27.36
68274;SHT30;55104;47.356;19.448;2022-08-27T14:19:31;34.71;26.94
68274;SHT30;55104;47.356;19.448;2022-08-27T14:22:37;34.79;28.23
68274;SHT30;55104;47.356;19.448;2022-08-27T14:25:40;34.74;28.95
68274;SHT30;55104;47.356;19.448;2022-08-27T14:28:42;34.90;26.67
68274;SHT30;55104;47.356;19.448;2022-08-27T14:31:45;34.79;27.65
68274;SHT30;55104;47.356;19.448;2022-08-27T14:34:47;34.91;27.38
68274;SHT30;55104;47.356;19.448;2022-08-27T14:37:49;34.62;26.93
68274;SHT30;55104;47.356;19.448;2022-08-27T14:40:53;34.78;27.27
68274;SHT30;55104;47.356;19.448;2022-08-27T14:43:55;34.56;27.20
68274;SHT30;55104;47.356;19.448;2022-08-27T14:46:57;34.57;27.43
68274;SHT30;55104;47.356;19.448;2022-08-27T14:50:03;34.63;28.61
68274;SHT30;55104;47.356;19.448;2022-08-27T14:53:05;34.56;28.72
68274;SHT30;55104;47.356;19.448;2022-08-27T14:56:07;34.41;27.99
68274;SHT30;55104;47.356;19.448;2022-08-27T14:59:09;34.49;29.37
68274;SHT30;55104;47.356;19.448;2022-08-27T15:02:11;34.57;28.04
68274;SHT30;55104;47.356;19.448;2022-08-27T15:05:18;34.56;29.52
68274;SHT30;55104;47.356;19.448;2022-08-27T15:08:25;34.52;29.06
68274;SHT30;55104;47.356;19.448;2022-08-27T15:11:34;34.39;28.62
68274;SHT30;55104;47.356;19.448;2022-08-27T15:14:37;34.39;28.95
68274;SHT30;55104;47.356;19.448;2022-08-27T15:17:40;34.46;27.69
68274;SHT30;55104;47.356;19.448;2022-08-27T15:20:42;34.36;29.12
68274;SHT30;55104;47.356;19.448;2022-08-27T15:23:47;34.19;29.32
68274;SHT30;55104;47.356;19.448;2022-08-27T15:26:51;34.07;29.34
68274;SHT30;55104;47.356;19.448;2022-08-27T15:29:53;33.97;29.50
68274;SHT30;55104;47.356;19.448;2022-08-27T15:32:55;33.87;29.98
68274;SHT30;55104;47.356;19.448;2022-08-27T15:35:57;33.78;30.46
68274;SHT30;55104;47.356;19.448;2022-08-27T15:39:05;33.77;30.10
68274;SHT30;55104;47.356;19.448;2022-08-27T15:42:07;33.60;30.33
68274;SHT30;55104;47.356;19.448;2022-08-27T15:45:12;33.53;30.38
68274;SHT30;55104;47.356;19.448;2022-08-27T15:48:14;33.56;30.10
68274;SHT30;55104;47.356;19.448;2022-08-27T15:51:24;33.50;29.91
68274;SHT30;55104;47.356;19.448;2022-08-27T15:54:27;33.45;31.17
68274;SHT30;55104;47.356;19.448;2022-08-27T15:57:29;33.16;30.90
68274;SHT30;55104;47.356;19.448;2022-08-27T16:00:33;32.89;31.40
68274;SHT30;55104;47.356;19.448;2022-08-27T16:03:37;32.78;31.48
68274;SHT30;55104;47.356;19.448;2022-08-27T16:06:39;32.82;31.40
68274;SHT30;55104;47.356;19.448;2022-08-27T16:09:41;32.60;31.99
68274;SHT30;55104;47.356;19.448;2022-08-27T16:12:44;32.37;32.21
68274;SHT30;55104;47.356;19.448;2022-08-27T16:15:47;32.29;32.09
68274;SHT30;55104;47.356;19.448;2022-08-27T16:18:49;32.10;33.01
68274;SHT30;55104;47.356;19.448;2022-08-27T16:21:52;31.95;33.29
68274;SHT30;55104;47.356;19.448;2022-08-27T16:24:54;31.92;33.57
68274;SHT30;55104;47.356;19.448;2022-08-27T16:27:56;31.82;34.03
68274;SHT30;55104;47.356;19.448;2022-08-27T16:31:02;31.75;34.06
68274;SHT30;55104;47.356;19.448;2022-08-27T16:34:13;31.57;34.07
68274;SHT30;55104;47.356;19.448;2022-08-27T16:37:16;31.41;34.46
68274;SHT30;55104;47.356;19.448;2022-08-27T16:40:18;31.33;35.09
68274;SHT30;55104;47.356;19.448;2022-08-27T16:43:23;31.09;35.78
68274;SHT30;55104;47.356;19.448;2022-08-27T16:46:26;30.88;35.70
68274;SHT30;55104;47.356;19.448;2022-08-27T16:49:29;30.79;36.14
68274;SHT30;55104;47.356;19.448;2022-08-27T16:52:50;30.62;36.06
68274;SHT30;55104;47.356;19.448;2022-08-27T16:55:52;30.47;36.86
68274;SHT30;55104;47.356;19.448;2022-08-27T16:58:54;30.27;37.40
68274;SHT30;55104;47.356;19.448;2022-08-27T17:01:56;29.99;38.65
68274;SHT30;55104;47.356;19.448;2022-08-27T17:04:59;29.73;39.53
68274;SHT30;55104;47.356;19.448;2022-08-27T17:08:22;29.47;40.87
68274;SHT30;55104;47.356;19.448;2022-08-27T17:11:28;29.25;41.45
68274;SHT30;55104;47.356;19.448;2022-08-27T17:14:34;29.02;42.25
68274;SHT30;55104;47.356;19.448;2022-08-27T17:17:39;28.84;43.29
68274;SHT30;55104;47.356;19.448;2022-08-27T17:20:42;28.68;43.87
68274;SHT30;55104;47.356;19.448;2022-08-27T17:23:47;28.49;44.76
68274;SHT30;55104;47.356;19.448;2022-08-27T17:26:49;28.31;45.28
68274;SHT30;55104;47.356;19.448;2022-08-27T17:29:51;28.08;45.73
68274;SHT30;55104;47.356;19.448;2022-08-27T17:32:53;27.90;46.32
68274;SHT30;55104;47.356;19.448;2022-08-27T17:35:56;27.78;46.60
68274;SHT30;55104;47.356;19.448;2022-08-27T17:39:00;27.61;47.29
68274;SHT30;55104;47.356;19.448;2022-08-27T17:42:03;27.48;47.43
68274;SHT30;55104;47.356;19.448;2022-08-27T17:45:06;27.34;48.16
68274;SHT30;55104;47.356;19.448;2022-08-27T17:48:08;27.15;48.38
68274;SHT30;55104;47.356;19.448;2022-08-27T17:51:20;27.00;48.81
68274;SHT30;55104;47.356;19.448;2022-08-27T17:57:36;26.80;50.25
68274;SHT30;55104;47.356;19.448;2022-08-27T18:00:42;26.64;51.02
68274;SHT30;55104;47.356;19.448;2022-08-27T18:03:46;26.51;51.95
68274;SHT30;55104;47.356;19.448;2022-08-27T18:06:49;26.41;52.13
68274;SHT30;55104;47.356;19.448;2022-08-27T18:09:51;26.32;53.45
68274;SHT30;55104;47.356;19.448;2022-08-27T18:12:53;26.21;52.37
68274;SHT30;55104;47.356;19.448;2022-08-27T18:15:56;26.17;51.51
68274;SHT30;55104;47.356;19.448;2022-08-27T18:18:59;26.07;51.66
68274;SHT30;55104;47.356;19.448;2022-08-27T18:22:07;26.00;52.74
68274;SHT30;55104;47.356;19.448;2022-08-27T18:25:11;25.88;53.41
68274;SHT30;55104;47.356;19.448;2022-08-27T18:28:15;25.81;54.08
68274;SHT30;55104;47.356;19.448;2022-08-27T18:31:19;25.70;52.80
68274;SHT30;55104;47.356;19.448;2022-08-27T18:34:23;25.65;52.91
68274;SHT30;55104;47.356;19.448;2022-08-27T18:37:25;25.58;54.50
68274;SHT30;55104;47.356;19.448;2022-08-27T18:40:34;25.52;54.72
68274;SHT30;55104;47.356;19.448;2022-08-27T18:43:38;25.43;54.94
68274;SHT30;55104;47.356;19.448;2022-08-27T18:46:40;25.39;54.99
68274;SHT30;55104;47.356;19.448;2022-08-27T18:49:42;25.33;56.10
68274;SHT30;55104;47.356;19.448;2022-08-27T18:52:46;25.24;56.08
68274;SHT30;55104;47.356;19.448;2022-08-27T18:55:49;25.19;56.66
68274;SHT30;55104;47.356;19.448;2022-08-27T18:58:51;25.12;57.72
68274;SHT30;55104;47.356;19.448;2022-08-27T19:01:54;25.03;57.39
68274;SHT30;55104;47.356;19.448;2022-08-27T19:04:57;24.92;57.28
68274;SHT30;55104;47.356;19.448;2022-08-27T19:07:59;24.81;56.52
68274;SHT30;55104;47.356;19.448;2022-08-27T19:11:02;24.77;56.85
68274;SHT30;55104;47.356;19.448;2022-08-27T19:14:04;24.67;56.75
68274;SHT30;55104;47.356;19.448;2022-08-27T19:17:06;24.64;58.29
68274;SHT30;55104;47.356;19.448;2022-08-27T19:20:10;24.59;58.63
68274;SHT30;55104;47.356;19.448;2022-08-27T19:23:12;24.48;58.12
68274;SHT30;55104;47.356;19.448;2022-08-27T19:26:17;24.39;57.13
68274;SHT30;55104;47.356;19.448;2022-08-27T19:29:20;24.32;57.22
68274;SHT30;55104;47.356;19.448;2022-08-27T19:32:22;24.78;51.96
68274;SHT30;55104;47.356;19.448;2022-08-27T19:35:25;25.15;49.56
68274;SHT30;55104;47.356;19.448;2022-08-27T19:38:27;25.42;48.90
68274;SHT30;55104;47.356;19.448;2022-08-27T19:41:32;25.58;48.73
68274;SHT30;55104;47.356;19.448;2022-08-27T19:44:34;25.71;48.59
68274;SHT30;55104;47.356;19.448;2022-08-27T19:47:36;25.73;48.81
68274;SHT30;55104;47.356;19.448;2022-08-27T19:50:39;25.84;49.50
68274;SHT30;55104;47.356;19.448;2022-08-27T19:53:41;25.83;50.35
68274;SHT30;55104;47.356;19.448;2022-08-27T19:56:43;25.77;51.09
68274;SHT30;55104;47.356;19.448;2022-08-27T19:59:45;25.81;51.38
68274;SHT30;55104;47.356;19.448;2022-08-27T20:02:47;25.86;51.38
68274;SHT30;55104;47.356;19.448;2022-08-27T20:05:52;25.88;51.57
68274;SHT30;55104;47.356;19.448;2022-08-27T20:08:54;25.90;51.48
68274;SHT30;55104;47.356;19.448;2022-08-27T20:11:56;25.93;51.41
68274;SHT30;55104;47.356;19.448;2022-08-27T20:15:06;25.91;51.48
68274;SHT30;55104;47.356;19.448;2022-08-27T20:18:09;25.96;51.38
68274;SHT30;55104;47.356;19.448;2022-08-27T20:21:11;25.94;51.50
68274;SHT30;55104;47.356;19.448;2022-08-27T20:24:14;25.90;51.69